Weather at Butz Heliport

Public forecast

Using degrees Fahrenheit for public forecast. Weather courtesy of forecast.io.

Closest aviation weather report (METAR) to Butz Heliport

Closest report is Allentown Queen City Municipal Airport, 4.0 nm (7.4 km) ESE. Retrieved 2021/06/13 18:15 UTC (0 seconds ago):

KXLL 131815Z AUTO 19003KT 10SM BKN026 BKN030 OVC045 23/17 A2992 RMK AO2

Closest aviation forecast (TAF) to Butz Heliport

Closest forecast is Lehigh Valley International Airport, 6.1 nm (11.4 km) ENE. Retrieved 2021/06/13 18:30 UTC (0 seconds ago):

TAF KABE 131728Z 1318/1418 20005KT P6SM BKN040 FM140100 18004KT P6SM -SHRA OVC025 FM140700 15004KT 4SM -SHRA BR OVC015 FM141600 20004KT 6SM BR BKN010